createdAt,value
2023-04-21T00:00:10.569Z,17.05
2023-04-21T00:01:44.054Z,15.88
2023-04-21T00:03:15.975Z,16.00
2023-04-21T00:04:50.116Z,17.15
2023-04-21T00:06:23.554Z,13.68
2023-04-21T00:07:55.513Z,17.83
2023-04-21T00:09:28.063Z,16.38
2023-04-21T00:10:59.911Z,13.95
2023-04-21T00:12:31.737Z,13.68
2023-04-21T00:14:03.681Z,13.35
2023-04-21T00:15:35.622Z,13.05
2023-04-21T00:17:07.481Z,14.02
2023-04-21T00:18:39.280Z,15.77
2023-04-21T00:20:11.715Z,15.18
2023-04-21T00:21:43.504Z,13.43
2023-04-21T00:23:15.410Z,15.05
2023-04-21T00:24:47.542Z,13.85
2023-04-21T00:26:20.518Z,16.73
2023-04-21T00:27:54.543Z,18.63
2023-04-21T00:29:26.361Z,18.75
2023-04-21T00:30:58.277Z,17.67
2023-04-21T00:32:31.213Z,16.75
2023-04-21T00:34:03.061Z,15.52
2023-04-21T00:35:34.934Z,17.48
2023-04-21T00:37:06.734Z,18.33
2023-04-21T00:38:38.540Z,17.02
2023-04-21T00:40:10.805Z,17.95
2023-04-21T00:41:44.932Z,16.90
2023-04-21T00:43:16.769Z,16.58
2023-04-21T00:44:48.587Z,16.13
2023-04-21T00:46:20.470Z,16.23
2023-04-21T00:47:52.555Z,16.73
2023-04-21T00:49:25.625Z,17.88
2023-04-21T00:50:57.465Z,15.23
2023-04-21T00:52:29.879Z,18.85
2023-04-21T00:54:05.151Z,16.50
2023-04-21T00:55:37.344Z,15.93
2023-04-21T00:57:10.475Z,18.55
2023-04-21T00:58:42.927Z,17.27
2023-04-21T01:00:15.387Z,17.38
2023-04-21T01:01:47.203Z,16.38
2023-04-21T01:03:19.820Z,19.77
2023-04-21T01:04:51.763Z,16.65
2023-04-21T01:06:23.591Z,17.40
2023-04-21T01:07:55.416Z,16.27
2023-04-21T01:09:28.395Z,19.10
2023-04-21T01:11:00.953Z,16.50
2023-04-21T01:12:32.801Z,17.05
2023-04-21T01:14:05.819Z,15.20
2023-04-21T01:15:37.611Z,14.02
2023-04-21T01:17:10.745Z,14.32
2023-04-21T01:18:42.597Z,16.05
2023-04-21T01:20:15.228Z,17.05
2023-04-21T01:21:47.031Z,15.57
2023-04-21T01:23:21.233Z,16.58
2023-04-21T01:24:53.295Z,14.68
2023-04-21T01:26:25.098Z,15.98
2023-04-21T01:27:56.989Z,17.00
2023-04-21T01:29:28.778Z,18.17
2023-04-21T01:31:00.937Z,17.20
2023-04-21T01:32:33.264Z,16.35
2023-04-21T01:34:05.519Z,18.27
2023-04-21T01:35:37.343Z,18.40
2023-04-21T01:37:10.990Z,17.52
2023-04-21T01:38:43.290Z,16.15
2023-04-21T01:40:15.083Z,17.77
2023-04-21T01:41:46.879Z,16.52
2023-04-21T01:43:21.675Z,18.10
2023-04-21T01:44:54.738Z,14.18
2023-04-21T01:46:26.660Z,15.02
2023-04-21T01:47:58.609Z,15.25
2023-04-21T01:49:30.636Z,12.93
2023-04-21T01:51:02.538Z,14.23
2023-04-21T01:52:34.344Z,13.77
2023-04-21T01:54:06.975Z,14.68
2023-04-21T01:55:38.834Z,13.50
2023-04-21T01:57:14.018Z,14.20
2023-04-21T01:58:46.285Z,13.38
2023-04-21T02:00:18.272Z,14.20
2023-04-21T02:01:50.437Z,13.20
2023-04-21T02:03:22.468Z,14.23
2023-04-21T02:04:54.295Z,13.93
2023-04-21T02:06:26.446Z,15.15
2023-04-21T02:07:58.276Z,13.00
2023-04-21T02:09:30.126Z,14.13
2023-04-21T02:11:02.284Z,13.98
2023-04-21T02:12:34.045Z,15.32
2023-04-21T02:14:06.714Z,12.90
2023-04-21T02:15:38.620Z,13.70
2023-04-21T02:17:11.592Z,14.32
2023-04-21T02:18:44.794Z,14.68
2023-04-21T02:20:16.807Z,14.05
2023-04-21T02:21:48.592Z,13.25
2023-04-21T02:23:20.426Z,17.13
2023-04-21T02:24:53.168Z,14.80
2023-04-21T02:26:25.266Z,14.18
2023-04-21T02:27:57.093Z,13.38
2023-04-21T02:29:32.232Z,15.15
2023-04-21T02:31:04.707Z,14.20
2023-04-21T02:32:39.196Z,15.88
2023-04-21T02:34:11.053Z,14.68
2023-04-21T02:35:43.612Z,13.85
2023-04-21T02:37:15.466Z,14.05
2023-04-21T02:38:47.236Z,12.65
2023-04-21T02:40:19.151Z,11.75
2023-04-21T02:41:51.018Z,14.10
2023-04-21T02:43:22.894Z,12.70
2023-04-21T02:44:54.824Z,12.82
2023-04-21T02:46:26.737Z,13.55
2023-04-21T02:47:59.657Z,14.90
2023-04-21T02:49:31.556Z,15.80
2023-04-21T02:51:04.557Z,14.55
2023-04-21T02:52:38.192Z,15.95
2023-04-21T02:54:10.036Z,16.45
2023-04-21T02:55:42.020Z,13.43
2023-04-21T02:57:14.002Z,15.35
2023-04-21T02:58:46.054Z,15.07
2023-04-21T03:00:18.100Z,18.63
2023-04-21T03:01:50.038Z,16.92
2023-04-21T03:03:21.985Z,17.67
2023-04-21T03:04:54.503Z,15.02
2023-04-21T03:06:27.541Z,14.05
2023-04-21T03:07:59.558Z,13.90
2023-04-21T03:09:31.400Z,14.65
2023-04-21T03:11:04.891Z,13.77
2023-04-21T03:12:37.442Z,16.45
2023-04-21T03:14:09.261Z,15.13
2023-04-21T03:15:41.125Z,14.23
2023-04-21T03:17:12.924Z,14.27
2023-04-21T03:18:44.761Z,15.23
2023-04-21T03:20:18.045Z,15.93
2023-04-21T03:21:49.858Z,16.02
2023-04-21T03:23:21.690Z,14.48
2023-04-21T03:24:53.591Z,15.27
2023-04-21T03:26:25.889Z,15.38
2023-04-21T03:27:57.688Z,14.80
2023-04-21T03:29:30.835Z,16.75
2023-04-21T03:31:03.498Z,20.27
2023-04-21T03:32:35.345Z,16.35
2023-04-21T03:34:08.110Z,15.15
2023-04-21T03:35:40.339Z,17.30
2023-04-21T03:37:13.319Z,17.88
2023-04-21T03:38:45.138Z,15.05
2023-04-21T03:40:17.679Z,14.88
2023-04-21T03:41:49.485Z,13.98
2023-04-21T03:43:21.318Z,15.05
2023-04-21T03:44:53.105Z,16.10
2023-04-21T03:46:25.713Z,16.70
2023-04-21T03:47:57.612Z,16.50
2023-04-21T03:49:29.560Z,16.30
2023-04-21T03:51:01.342Z,15.35
2023-04-21T03:52:33.476Z,15.90
2023-04-21T03:54:05.278Z,15.20
2023-04-21T03:55:37.314Z,18.15
2023-04-21T03:57:09.077Z,18.23
2023-04-21T03:58:41.111Z,18.70
2023-04-21T04:00:14.012Z,17.48
2023-04-21T04:01:46.121Z,18.17
2023-04-21T04:03:19.151Z,18.83
2023-04-21T04:04:52.624Z,17.38
2023-04-21T04:06:24.455Z,17.23
2023-04-21T04:07:56.459Z,16.27
2023-04-21T04:09:28.374Z,15.88
2023-04-21T04:11:00.153Z,17.33
2023-04-21T04:12:31.976Z,17.65
2023-04-21T04:14:03.740Z,19.85
2023-04-21T04:15:35.715Z,16.73
2023-04-21T04:17:07.570Z,17.70
2023-04-21T04:18:39.423Z,16.10
2023-04-21T04:20:11.489Z,18.60
2023-04-21T04:21:43.564Z,16.45
2023-04-21T04:23:15.551Z,16.95
2023-04-21T04:24:48.169Z,17.70
2023-04-21T04:26:20.105Z,16.33
2023-04-21T04:27:51.957Z,17.90
2023-04-21T04:29:23.993Z,17.77
2023-04-21T04:30:55.805Z,17.00
2023-04-21T04:32:30.643Z,19.20
2023-04-21T04:34:02.452Z,18.13
2023-04-21T04:35:54.850Z,16.08
2023-04-21T04:37:26.870Z,15.55
2023-04-21T04:38:59.680Z,17.30
2023-04-21T04:40:33.453Z,15.95
2023-04-21T04:42:11.923Z,14.57
2023-04-21T04:43:44.173Z,19.80
2023-04-21T04:45:16.900Z,20.88
2023-04-21T04:46:49.778Z,19.83
2023-04-21T04:48:21.675Z,15.45
2023-04-21T04:49:53.506Z,16.85
2023-04-21T04:51:25.582Z,19.48
2023-04-21T04:52:57.828Z,19.33
2023-04-21T04:54:29.714Z,15.65
2023-04-21T04:56:01.573Z,13.73
2023-04-21T04:57:33.356Z,13.43
2023-04-21T04:59:05.239Z,14.25
2023-04-21T05:00:37.276Z,13.60
2023-04-21T05:02:09.217Z,15.23
2023-04-21T05:03:41.189Z,18.02
2023-04-21T05:05:13.112Z,15.55
2023-04-21T05:06:45.040Z,15.88
2023-04-21T05:08:18.230Z,15.60
2023-04-21T05:09:50.399Z,18.08
2023-04-21T05:11:22.453Z,15.63
2023-04-21T05:12:54.269Z,18.17
2023-04-21T05:14:27.049Z,19.77
2023-04-21T05:15:59.665Z,18.02
2023-04-21T05:17:33.385Z,18.17
2023-04-21T05:19:05.256Z,17.90
2023-04-21T05:20:37.042Z,18.30
2023-04-21T05:22:08.813Z,17.88
2023-04-21T05:23:40.865Z,15.57
2023-04-21T05:25:16.039Z,16.25
2023-04-21T05:26:48.000Z,16.20
2023-04-21T05:28:19.853Z,17.75
2023-04-21T05:29:51.664Z,19.70
2023-04-21T05:31:24.613Z,18.20
2023-04-21T05:32:56.509Z,17.65
2023-04-21T05:34:28.350Z,18.38
2023-04-21T05:36:00.199Z,17.02
2023-04-21T05:37:32.085Z,19.38
2023-04-21T05:39:03.971Z,19.00
2023-04-21T05:40:35.784Z,67.00
2023-04-21T05:42:11.247Z,52.22
2023-04-21T05:43:43.072Z,94.55
2023-04-21T05:45:15.102Z,70.63
2023-04-21T05:46:46.954Z,25.30
2023-04-21T05:48:18.857Z,18.85
2023-04-21T05:49:54.127Z,19.70
2023-04-21T05:51:27.296Z,20.85
2023-04-21T05:52:59.090Z,19.30
2023-04-21T05:54:30.990Z,19.30
2023-04-21T05:56:02.768Z,19.65
2023-04-21T05:57:34.584Z,18.05
2023-04-21T05:59:07.177Z,19.98
2023-04-21T06:00:38.977Z,17.63
2023-04-21T06:02:11.734Z,17.02
2023-04-21T06:03:43.759Z,15.90
2023-04-21T06:05:15.717Z,17.13
2023-04-21T06:06:47.506Z,16.20
2023-04-21T06:08:19.305Z,17.42
2023-04-21T06:09:51.796Z,16.25
2023-04-21T06:11:24.202Z,17.40
2023-04-21T06:12:55.970Z,16.20
2023-04-21T06:14:27.995Z,14.20
2023-04-21T06:15:59.814Z,15.90
2023-04-21T06:17:31.671Z,16.23
2023-04-21T06:19:03.516Z,15.63
2023-04-21T06:20:35.405Z,15.90
2023-04-21T06:22:07.224Z,15.15
2023-04-21T06:23:39.084Z,15.50
2023-04-21T06:25:11.000Z,15.32
2023-04-21T06:26:42.881Z,16.25
2023-04-21T06:28:14.676Z,16.83
2023-04-21T06:29:46.499Z,15.55
2023-04-21T06:31:20.071Z,14.73
2023-04-21T06:32:51.991Z,14.15
2023-04-21T06:34:23.936Z,15.02
2023-04-21T06:35:56.130Z,13.98
2023-04-21T06:37:27.921Z,17.08
2023-04-21T06:38:59.985Z,15.50
2023-04-21T06:40:31.764Z,16.00
2023-04-21T06:42:03.649Z,15.90
2023-04-21T06:43:35.492Z,16.60
2023-04-21T06:45:08.107Z,13.85
2023-04-21T06:46:42.750Z,12.98
2023-04-21T06:48:14.660Z,12.85
2023-04-21T06:49:46.726Z,12.65
2023-04-21T06:51:18.561Z,14.23
2023-04-21T06:52:50.374Z,13.32
2023-04-21T06:54:22.180Z,13.18
2023-04-21T06:55:54.306Z,13.82
2023-04-21T06:57:26.147Z,12.88
2023-04-21T06:58:57.956Z,14.02
2023-04-21T07:00:29.780Z,13.45
2023-04-21T07:02:01.835Z,16.58
2023-04-21T07:03:33.845Z,12.75
2023-04-21T07:05:06.004Z,15.25
2023-04-21T07:06:37.821Z,14.63
2023-04-21T07:08:09.620Z,16.30
2023-04-21T07:09:41.391Z,15.95
2023-04-21T07:11:13.195Z,15.48
2023-04-21T07:12:47.742Z,16.38
2023-04-21T07:14:19.562Z,20.20
2023-04-21T07:15:52.145Z,14.88
2023-04-21T07:17:23.982Z,15.70
2023-04-21T07:18:56.858Z,14.52
2023-04-21T07:20:28.753Z,13.13
2023-04-21T07:22:00.641Z,16.50
2023-04-21T07:23:32.430Z,13.52
2023-04-21T07:25:08.488Z,13.10
2023-04-21T07:26:40.338Z,13.70
2023-04-21T07:28:12.172Z,12.25
2023-04-21T07:29:43.949Z,10.73
2023-04-21T07:31:15.880Z,16.33
2023-04-21T07:32:47.808Z,15.07
2023-04-21T07:34:20.206Z,10.55
2023-04-21T07:35:52.231Z,11.80
2023-04-21T07:37:24.607Z,12.65
2023-04-21T07:38:56.833Z,11.20
2023-04-21T07:40:28.658Z,11.63
2023-04-21T07:42:00.625Z,10.77
2023-04-21T07:43:32.553Z,9.43
2023-04-21T07:45:05.094Z,8.77
2023-04-21T07:46:37.425Z,10.13
2023-04-21T07:48:09.301Z,7.93
2023-04-21T07:49:41.198Z,8.35
2023-04-21T07:51:13.013Z,9.77
2023-04-21T07:52:44.872Z,10.10
2023-04-21T07:54:16.643Z,8.05
2023-04-21T07:55:48.637Z,8.27
2023-04-21T07:57:20.623Z,8.45
2023-04-21T07:58:52.417Z,8.70
2023-04-21T08:00:24.297Z,8.00
2023-04-21T08:01:56.689Z,7.38
2023-04-21T08:03:28.845Z,8.38
2023-04-21T08:05:00.986Z,8.90
2023-04-21T08:06:33.733Z,7.50
2023-04-21T08:08:05.863Z,8.05
2023-04-21T08:09:37.713Z,8.23
2023-04-21T08:11:10.843Z,6.38
2023-04-21T08:12:42.952Z,5.97
2023-04-21T08:14:15.387Z,5.32
2023-04-21T08:15:47.345Z,5.97
2023-04-21T08:17:19.231Z,7.38
2023-04-21T08:18:50.996Z,7.07
2023-04-21T08:20:22.985Z,6.10
2023-04-21T08:21:55.373Z,9.63
2023-04-21T08:23:27.262Z,7.05
2023-04-21T08:24:59.247Z,7.50
2023-04-21T08:26:31.466Z,4.25
2023-04-21T08:28:03.350Z,4.57
2023-04-21T08:29:35.167Z,3.97
2023-04-21T08:31:07.049Z,5.78
2023-04-21T08:32:38.888Z,4.60
2023-04-21T08:34:11.022Z,5.35
2023-04-21T08:35:55.058Z,4.55
2023-04-21T08:37:37.633Z,5.88
2023-04-21T08:39:09.690Z,5.97
2023-04-21T08:40:42.255Z,4.90
2023-04-21T08:42:15.232Z,6.82
2023-04-21T08:43:47.019Z,4.85
2023-04-21T08:45:18.822Z,6.95
2023-04-21T08:46:51.598Z,7.55
2023-04-21T08:48:24.348Z,5.88
2023-04-21T08:49:57.080Z,5.43
2023-04-21T08:51:30.382Z,4.97
2023-04-21T08:53:02.214Z,5.05
2023-04-21T08:54:39.054Z,5.68
2023-04-21T08:56:11.879Z,4.30
2023-04-21T08:57:43.925Z,3.78
2023-04-21T08:59:15.819Z,5.95
2023-04-21T09:00:47.676Z,4.03
2023-04-21T09:02:19.852Z,4.70
2023-04-21T09:04:18.000Z,3.80
2023-04-21T09:06:00.088Z,4.07
2023-04-21T09:07:41.674Z,7.22
2023-04-21T09:09:13.544Z,7.70
2023-04-21T09:10:48.619Z,3.42
2023-04-21T09:12:20.694Z,3.35
2023-04-21T09:13:57.206Z,3.65
2023-04-21T09:15:28.996Z,4.65
2023-04-21T09:17:02.634Z,2.28
2023-04-21T09:18:36.655Z,6.60
2023-04-21T09:20:15.678Z,4.28
2023-04-21T09:21:47.504Z,5.35
2023-04-21T09:23:21.125Z,3.60
2023-04-21T09:24:58.985Z,2.78
2023-04-21T09:26:31.096Z,4.22
2023-04-21T09:28:02.988Z,3.05
2023-04-21T09:29:35.050Z,3.13
2023-04-21T09:31:13.686Z,3.50
2023-04-21T09:32:45.721Z,6.88
2023-04-21T09:34:24.886Z,4.07
2023-04-21T09:35:56.698Z,5.15
2023-04-21T09:37:32.789Z,5.05
2023-04-21T09:40:40.809Z,5.60
2023-04-21T09:42:12.762Z,6.07
2023-04-21T09:43:44.539Z,5.32
2023-04-21T09:45:32.918Z,2.95
2023-04-21T09:47:12.371Z,3.58
2023-04-21T09:48:46.271Z,2.88
2023-04-21T09:50:36.177Z,4.03
2023-04-21T09:52:19.059Z,3.05
2023-04-21T09:53:55.304Z,6.30
2023-04-21T09:55:29.860Z,3.42
2023-04-21T09:57:04.768Z,2.55
2023-04-21T09:58:44.246Z,3.17
2023-04-21T10:00:18.657Z,3.50
2023-04-21T10:01:54.013Z,2.63
2023-04-21T10:03:29.082Z,5.00
2023-04-21T10:05:01.428Z,3.75
2023-04-21T10:06:33.725Z,4.43
2023-04-21T10:08:07.568Z,5.88
2023-04-21T10:09:47.814Z,4.20
2023-04-21T10:11:20.115Z,6.30
2023-04-21T10:12:52.507Z,4.30
2023-04-21T10:14:26.259Z,4.05
2023-04-21T10:16:05.741Z,2.90
2023-04-21T10:17:37.592Z,3.17
2023-04-21T10:19:26.244Z,5.97
2023-04-21T10:21:12.531Z,4.97
2023-04-21T10:22:44.334Z,3.17
2023-04-21T10:24:16.308Z,5.93
2023-04-21T10:25:49.635Z,3.25
2023-04-21T10:27:40.844Z,4.22
2023-04-21T10:29:12.727Z,5.97
2023-04-21T10:30:44.514Z,4.10
2023-04-21T10:32:41.822Z,5.53
2023-04-21T10:34:14.477Z,2.80
2023-04-21T10:36:04.943Z,3.17
2023-04-21T10:37:36.753Z,5.93
2023-04-21T10:39:09.246Z,5.55
2023-04-21T10:40:44.212Z,2.55
2023-04-21T10:42:16.549Z,3.28
2023-04-21T10:43:50.990Z,4.65
2023-04-21T10:45:25.778Z,4.70
2023-04-21T10:46:59.026Z,6.03
2023-04-21T10:48:37.619Z,3.03
2023-04-21T10:50:29.683Z,4.22
2023-04-21T10:52:04.189Z,4.20
2023-04-21T10:53:43.991Z,6.15
2023-04-21T10:55:17.231Z,4.47
2023-04-21T10:56:53.394Z,6.07
2023-04-21T10:58:26.049Z,3.13
2023-04-21T10:59:57.993Z,4.53
2023-04-21T11:01:29.921Z,2.90
2023-04-21T11:03:04.956Z,5.72
2023-04-21T11:04:37.613Z,4.45
2023-04-21T11:06:18.165Z,2.67
2023-04-21T11:07:50.088Z,5.18
2023-04-21T11:09:21.936Z,4.63
2023-04-21T11:10:56.969Z,4.22
2023-04-21T11:12:33.318Z,3.80
2023-04-21T11:14:05.196Z,4.50
2023-04-21T11:15:37.117Z,5.45
2023-04-21T11:17:17.042Z,3.03
2023-04-21T11:18:48.945Z,5.20
2023-04-21T11:20:20.974Z,6.97
2023-04-21T11:21:55.983Z,2.55
2023-04-21T11:23:27.811Z,2.30
2023-04-21T11:25:00.202Z,3.13
2023-04-21T11:26:38.517Z,3.80
2023-04-21T11:28:10.570Z,3.33
2023-04-21T11:29:42.548Z,2.55
2023-04-21T11:31:14.407Z,2.55
2023-04-21T11:32:46.529Z,6.40
2023-04-21T11:34:21.436Z,3.00
2023-04-21T11:35:59.123Z,4.43
2023-04-21T11:37:30.955Z,3.22
2023-04-21T11:39:10.442Z,3.92
2023-04-21T11:40:48.899Z,6.00
2023-04-21T11:42:22.167Z,4.28
2023-04-21T11:43:54.043Z,3.75
2023-04-21T11:45:25.841Z,2.92
2023-04-21T11:46:57.705Z,3.58
2023-04-21T11:48:29.954Z,3.90
2023-04-21T11:50:02.538Z,2.83
2023-04-21T11:51:39.040Z,3.47
2023-04-21T11:53:10.897Z,2.75
2023-04-21T11:54:42.798Z,2.95
2023-04-21T11:56:19.146Z,2.78
2023-04-21T11:57:51.745Z,9.40
2023-04-21T11:59:26.448Z,2.70
2023-04-21T12:00:58.389Z,3.35
2023-04-21T12:02:32.124Z,4.95
2023-04-21T12:04:04.376Z,3.50
2023-04-21T12:05:37.003Z,5.25
2023-04-21T12:07:08.875Z,2.88
2023-04-21T12:08:40.964Z,3.70
2023-04-21T12:10:18.044Z,2.92
2023-04-21T12:11:51.422Z,6.20
2023-04-21T12:13:24.007Z,2.97
2023-04-21T12:14:56.079Z,3.97
2023-04-21T12:16:29.682Z,4.05
2023-04-21T12:18:01.722Z,2.95
2023-04-21T12:19:41.849Z,4.07
2023-04-21T12:21:15.666Z,5.53
2023-04-21T12:22:48.546Z,4.43
2023-04-21T12:24:20.312Z,4.38
2023-04-21T12:25:52.437Z,4.07
2023-04-21T12:27:24.487Z,2.25
2023-04-21T12:28:56.458Z,9.00
2023-04-21T12:30:28.299Z,2.50
2023-04-21T12:32:00.159Z,4.35
2023-04-21T12:33:32.159Z,4.72
2023-04-21T12:35:05.449Z,3.55
2023-04-21T12:36:38.948Z,4.78
2023-04-21T12:38:10.781Z,4.18
2023-04-21T12:39:42.601Z,4.85
2023-04-21T12:41:14.406Z,2.95
2023-04-21T12:42:46.286Z,2.55
2023-04-21T12:44:18.094Z,6.40
2023-04-21T12:45:50.466Z,3.42
2023-04-21T12:47:22.625Z,3.92
2023-04-21T12:48:54.531Z,3.60
2023-04-21T12:50:26.301Z,3.15
2023-04-21T12:51:58.199Z,7.90
2023-04-21T12:53:31.208Z,5.82
2023-04-21T12:55:03.193Z,3.13
2023-04-21T12:56:35.057Z,2.83
2023-04-21T12:58:06.916Z,4.15
2023-04-21T12:59:38.822Z,4.13
2023-04-21T13:01:12.380Z,2.70
2023-04-21T13:02:44.880Z,2.10
2023-04-21T13:04:17.112Z,3.05
2023-04-21T13:05:49.240Z,2.03
2023-04-21T13:07:22.821Z,4.90
2023-04-21T13:08:54.718Z,2.10
2023-04-21T13:10:26.762Z,3.35
2023-04-21T13:11:58.557Z,3.33
2023-04-21T13:13:30.865Z,3.78
2023-04-21T13:15:03.313Z,3.45
2023-04-21T13:16:36.044Z,4.75
2023-04-21T13:18:07.863Z,8.20
2023-04-21T13:19:39.651Z,4.82
2023-04-21T13:21:11.514Z,3.13
2023-04-21T13:22:43.421Z,2.97
2023-04-21T13:24:15.330Z,2.70
2023-04-21T13:25:47.266Z,4.28
2023-04-21T13:27:19.075Z,3.97
2023-04-21T13:28:50.912Z,1.77
2023-04-21T13:30:22.772Z,3.22
2023-04-21T13:31:54.680Z,2.53
2023-04-21T13:33:26.504Z,3.25
2023-04-21T13:34:58.401Z,3.42
2023-04-21T13:36:30.366Z,3.53
2023-04-21T13:38:02.197Z,3.55
2023-04-21T13:39:34.274Z,2.70
2023-04-21T13:41:06.637Z,3.40
2023-04-21T13:42:39.100Z,2.75
2023-04-21T13:44:11.130Z,5.65
2023-04-21T13:45:43.137Z,4.53
2023-04-21T13:47:15.517Z,5.00
2023-04-21T13:48:47.632Z,5.32
2023-04-21T13:50:19.449Z,3.80
2023-04-21T13:51:51.355Z,5.25
2023-04-21T13:53:23.197Z,4.57
2023-04-21T13:54:55.119Z,4.45
2023-04-21T13:56:27.393Z,2.92
2023-04-21T13:58:00.927Z,4.75
2023-04-21T13:59:32.914Z,2.88
2023-04-21T14:01:05.015Z,3.00
2023-04-21T14:02:37.338Z,2.80
2023-04-21T14:04:09.887Z,3.10
2023-04-21T14:05:42.013Z,2.85
2023-04-21T14:07:16.045Z,4.30
2023-04-21T14:08:47.842Z,4.25
2023-04-21T14:10:19.628Z,2.65
2023-04-21T14:11:51.516Z,4.55
2023-04-21T14:13:34.871Z,3.72
2023-04-21T14:15:13.370Z,3.58
2023-04-21T14:16:49.172Z,2.58
2023-04-21T14:18:21.210Z,2.88
2023-04-21T14:19:55.081Z,4.22
2023-04-21T14:21:27.280Z,2.40
2023-04-21T14:22:59.205Z,2.38
2023-04-21T14:24:32.572Z,6.40
2023-04-21T14:26:05.441Z,4.75
2023-04-21T14:27:37.344Z,4.95
2023-04-21T14:29:09.156Z,3.13
2023-04-21T14:30:43.130Z,2.13
2023-04-21T14:32:15.320Z,6.10
2023-04-21T14:33:47.270Z,5.43
2023-04-21T14:35:19.188Z,3.95
2023-04-21T14:36:51.801Z,4.43
2023-04-21T14:38:23.822Z,3.17
2023-04-21T14:39:55.828Z,4.57
2023-04-21T14:41:27.652Z,2.90
2023-04-21T14:42:59.527Z,3.63
2023-04-21T14:44:31.456Z,3.35
2023-04-21T14:46:03.713Z,3.00
2023-04-21T14:47:37.172Z,3.20
2023-04-21T14:49:09.023Z,4.05
2023-04-21T14:50:41.225Z,3.35
2023-04-21T14:52:13.659Z,3.45
2023-04-21T14:53:46.098Z,3.92
2023-04-21T14:55:18.081Z,5.18
2023-04-21T14:56:49.875Z,4.50
2023-04-21T14:58:21.679Z,6.70
2023-04-21T14:59:53.771Z,4.20
2023-04-21T15:01:26.256Z,5.53
2023-04-21T15:02:58.884Z,5.25
2023-04-21T15:04:30.959Z,3.30
2023-04-21T15:06:06.564Z,3.92
2023-04-21T15:07:40.544Z,2.85
2023-04-21T15:09:12.402Z,4.88
2023-04-21T15:10:45.002Z,3.45
2023-04-21T15:12:16.938Z,4.22
2023-04-21T15:13:48.968Z,3.55
2023-04-21T15:15:20.867Z,3.72
2023-04-21T15:16:52.739Z,3.88
2023-04-21T15:18:24.550Z,3.40
2023-04-21T15:19:56.340Z,4.60
2023-04-21T15:21:28.576Z,5.45
2023-04-21T15:23:00.387Z,4.50
2023-04-21T15:24:32.170Z,4.07
2023-04-21T15:26:04.915Z,6.25
2023-04-21T15:27:39.371Z,5.65
2023-04-21T15:29:11.356Z,4.20
2023-04-21T15:30:43.827Z,4.63
2023-04-21T15:32:15.759Z,4.63
2023-04-21T15:33:47.583Z,3.80
2023-04-21T15:35:19.508Z,3.30
2023-04-21T15:36:51.301Z,5.25
2023-04-21T15:38:23.330Z,5.20
2023-04-21T15:39:56.568Z,3.72
2023-04-21T15:41:31.339Z,4.65
2023-04-21T15:43:03.203Z,4.72
2023-04-21T15:44:35.372Z,4.72
2023-04-21T15:46:13.530Z,4.03
2023-04-21T15:47:45.699Z,4.55
2023-04-21T15:49:17.681Z,5.20
2023-04-21T15:50:49.650Z,3.50
2023-04-21T15:52:21.776Z,4.10
2023-04-21T15:53:53.694Z,3.72
2023-04-21T15:55:27.973Z,5.30
2023-04-21T15:56:59.996Z,4.25
2023-04-21T15:58:31.885Z,4.45
2023-04-21T16:00:05.705Z,4.30
2023-04-21T16:01:37.763Z,4.65
2023-04-21T16:03:09.885Z,5.90
2023-04-21T16:04:42.481Z,5.13
2023-04-21T16:06:15.824Z,4.22
2023-04-21T16:07:47.704Z,4.78
2023-04-21T16:09:21.558Z,4.03
2023-04-21T16:10:53.583Z,4.10
2023-04-21T16:12:25.827Z,5.03
2023-04-21T16:13:57.687Z,5.55
2023-04-21T16:15:29.735Z,4.07
2023-04-21T16:17:04.697Z,6.65
2023-04-21T16:18:36.938Z,5.60
2023-04-21T16:20:09.509Z,4.18
2023-04-21T16:21:43.300Z,6.22
2023-04-21T16:23:15.761Z,5.78
2023-04-21T16:24:48.730Z,6.47
2023-04-21T16:26:20.666Z,4.45
2023-04-21T16:27:52.854Z,6.38
2023-04-21T16:29:24.712Z,5.00
2023-04-21T16:30:56.671Z,4.10
2023-04-21T16:32:28.566Z,4.00
2023-04-21T16:34:00.679Z,5.82
2023-04-21T16:35:32.733Z,4.90
2023-04-21T16:37:04.632Z,5.63
2023-04-21T16:38:36.481Z,5.35
2023-04-21T16:40:09.767Z,4.47
2023-04-21T16:41:41.580Z,6.07
2023-04-21T16:43:13.379Z,7.72
2023-04-21T16:44:45.340Z,5.65
2023-04-21T16:46:17.559Z,6.15
2023-04-21T16:47:49.535Z,4.78
2023-04-21T16:49:21.422Z,5.18
2023-04-21T16:50:54.262Z,5.45
2023-04-21T16:52:26.080Z,4.65
2023-04-21T16:53:57.920Z,5.25
2023-04-21T16:55:29.836Z,5.15
2023-04-21T16:57:02.380Z,5.70
2023-04-21T16:58:34.283Z,4.15
2023-04-21T17:00:07.327Z,4.65
2023-04-21T17:01:39.274Z,4.90
2023-04-21T17:03:11.333Z,4.13
2023-04-21T17:04:43.290Z,4.45
2023-04-21T17:06:19.608Z,5.47
2023-04-21T17:07:51.439Z,6.03
2023-04-21T17:09:23.249Z,5.90
2023-04-21T17:10:55.667Z,6.10
2023-04-21T17:12:28.121Z,5.72
2023-04-21T17:13:59.981Z,6.20
2023-04-21T17:15:33.447Z,5.03
2023-04-21T17:17:05.290Z,4.68
2023-04-21T17:18:37.238Z,5.03
2023-04-21T17:20:13.190Z,3.97
2023-04-21T17:21:45.004Z,4.28
2023-04-21T17:23:16.802Z,5.30
2023-04-21T17:24:53.784Z,8.85
2023-04-21T17:26:25.997Z,4.38
2023-04-21T17:27:57.981Z,4.65
2023-04-21T17:29:29.833Z,5.72
2023-04-21T17:31:14.507Z,5.20
2023-04-21T17:32:47.818Z,5.13
2023-04-21T17:34:19.726Z,4.65
2023-04-21T17:36:02.591Z,5.15
2023-04-21T17:37:35.312Z,4.47
2023-04-21T17:39:07.125Z,6.45
2023-04-21T17:40:39.065Z,3.90
2023-04-21T17:42:10.911Z,5.75
2023-04-21T17:43:43.047Z,4.55
2023-04-21T17:45:14.921Z,5.75
2023-04-21T17:46:46.886Z,3.97
2023-04-21T17:48:19.293Z,5.65
2023-04-21T17:49:51.402Z,5.68
2023-04-21T17:51:24.804Z,5.38
2023-04-21T17:52:56.703Z,4.50
2023-04-21T17:54:28.771Z,3.90
2023-04-21T17:56:00.661Z,4.82
2023-04-21T17:57:32.517Z,6.00
2023-04-21T17:59:04.528Z,6.95
2023-04-21T18:00:36.488Z,5.05
2023-04-21T18:02:08.398Z,4.78
2023-04-21T18:03:42.565Z,5.70
2023-04-21T18:05:14.544Z,6.95
2023-04-21T18:06:46.641Z,5.25
2023-04-21T18:08:20.839Z,4.68
2023-04-21T18:09:52.765Z,5.47
2023-04-21T18:11:24.677Z,4.45
2023-04-21T18:12:56.637Z,5.53
2023-04-21T18:14:28.489Z,4.82
2023-04-21T18:16:00.373Z,5.05
2023-04-21T18:17:32.369Z,5.53
2023-04-21T18:19:04.917Z,5.55
2023-04-21T18:20:36.795Z,4.95
2023-04-21T18:22:08.816Z,5.00
2023-04-21T18:23:40.609Z,6.50
2023-04-21T18:25:12.706Z,4.63
2023-04-21T18:26:44.527Z,6.88
2023-04-21T18:28:16.377Z,4.68
2023-04-21T18:29:48.166Z,4.03
2023-04-21T18:31:21.977Z,5.75
2023-04-21T18:32:53.931Z,6.25
2023-04-21T18:34:25.750Z,5.28
2023-04-21T18:35:58.337Z,6.00
2023-04-21T18:37:30.189Z,6.90
2023-04-21T18:39:02.070Z,5.95
2023-04-21T18:40:35.320Z,5.68
2023-04-21T18:42:07.113Z,4.63
2023-04-21T18:43:38.985Z,5.80
2023-04-21T18:45:11.255Z,6.55
2023-04-21T18:46:43.119Z,7.05
2023-04-21T18:48:15.182Z,4.63
2023-04-21T18:49:46.994Z,5.60
2023-04-21T18:51:18.934Z,5.93
2023-04-21T18:52:50.768Z,5.47
2023-04-21T18:54:22.569Z,5.55
2023-04-21T18:55:54.360Z,7.00
2023-04-21T18:57:26.462Z,5.35
2023-04-21T18:58:59.092Z,5.70
2023-04-21T19:00:32.319Z,5.22
2023-04-21T19:02:06.314Z,4.80
2023-04-21T19:03:38.351Z,6.15
2023-04-21T19:05:10.270Z,6.15
2023-04-21T19:06:42.185Z,6.20
2023-04-21T19:08:14.048Z,5.63
2023-04-21T19:09:45.901Z,6.30
2023-04-21T19:11:17.697Z,4.93
2023-04-21T19:12:49.638Z,5.97
2023-04-21T19:14:21.448Z,4.82
2023-04-21T19:15:53.242Z,7.15
2023-04-21T19:17:25.105Z,6.38
2023-04-21T19:18:56.974Z,7.15
2023-04-21T19:20:29.825Z,6.50
2023-04-21T19:22:04.282Z,6.57
2023-04-21T19:23:36.350Z,6.32
2023-04-21T19:25:08.778Z,5.50
2023-04-21T19:26:40.828Z,5.50
2023-04-21T19:28:12.622Z,6.45
2023-04-21T19:29:44.452Z,7.35
2023-04-21T19:31:19.394Z,6.28
2023-04-21T19:32:51.284Z,7.10
2023-04-21T19:34:23.146Z,6.93
2023-04-21T19:35:55.171Z,5.55
2023-04-21T19:37:28.259Z,5.28
2023-04-21T19:39:00.328Z,6.70
2023-04-21T19:40:32.419Z,5.72
2023-04-21T19:42:04.272Z,6.95
2023-04-21T19:43:36.102Z,7.60
2023-04-21T19:45:09.212Z,5.13
2023-04-21T19:46:43.207Z,5.13
2023-04-21T19:48:15.424Z,6.75
2023-04-21T19:49:47.400Z,5.50
2023-04-21T19:51:19.249Z,4.95
2023-04-21T19:52:51.114Z,7.95
2023-04-21T19:54:22.957Z,6.15
2023-04-21T19:55:55.126Z,6.90
2023-04-21T19:57:27.073Z,6.63
2023-04-21T19:59:00.474Z,6.13
2023-04-21T20:00:32.507Z,6.53
2023-04-21T20:02:04.837Z,7.70
2023-04-21T20:03:37.346Z,7.78
2023-04-21T20:05:10.272Z,9.23
2023-04-21T20:06:42.426Z,7.78
2023-04-21T20:08:16.435Z,8.45
2023-04-21T20:09:55.676Z,7.88
2023-04-21T20:11:29.109Z,8.98
2023-04-21T20:13:01.263Z,7.70
2023-04-21T20:14:33.076Z,8.90
2023-04-21T20:16:04.994Z,7.30
2023-04-21T20:17:37.239Z,7.93
2023-04-21T20:19:09.221Z,6.85
2023-04-21T20:20:41.156Z,8.80
2023-04-21T20:22:13.713Z,7.22